»·PEaware :: WAT462 KTEX-KASE

WAT462 :: KTEX-KASE

FLIGHT INFORMATION

Flight Status: Arrived
Operator:
Walker Air Transport
More flights by this operator :: More flights under this callsign
Pilot: Andrew C. (32327)
Aircraft: SOCATA TBM-900
(TBM9)
More flights by this aircraft type
Origin: KTEX Telluride Regl
United States
Destination: KASE Aspen-Pitkin Co/Sardy
United States
More flights between these airports :: More routes between these airports
Route: ETL PITMN DBL
File this flight plan on PilotEdge
Remarks: RMK / SIMBRIEF
Altitude:
(Current/Filed)
23,000ft
Speed:
(Current/Filed)
312kts
Departed: 22-Jan-23 11:03 AM
Arrived: 22-Jan-23 11:37 AM
Distance/Time
Traveled:
90nm/0:34
Distance/Time
To Go:
Arrived

Flight Plot

Page will automatically refresh every two minutes.

Flight plan parsing failed; only flown route is shown


Map Options




Map Legend


Flown Route
Filed Route
Departure Airport
Arrival Airport
Navaid (VOR, NDB)
Fix

Horizontal Profiles

Position Reports

Time Latitude Longitude Heading Altitude Ground
Speed
22-Jan-23 10:43 37.953945 -107.900944 12 9052ft 0kts
22-Jan-23 10:44 37.953945 -107.900944 12 9052ft 0kts
22-Jan-23 10:45 37.953945 -107.900944 12 9052ft 0kts
22-Jan-23 10:46 37.953945 -107.900944 12 9052ft 0kts
22-Jan-23 10:47 37.953945 -107.900944 12 9052ft 0kts
22-Jan-23 10:48 37.953944 -107.900944 12 9052ft 0kts
22-Jan-23 10:49 37.953944 -107.900944 12 9052ft 0kts
22-Jan-23 10:50 37.953944 -107.900944 12 9052ft 0kts
22-Jan-23 10:51 37.953944 -107.900944 12 9052ft 0kts
22-Jan-23 10:52 37.953944 -107.900944 12 9052ft 0kts
22-Jan-23 10:53 37.953944 -107.900944 12 9052ft 0kts
22-Jan-23 10:54 37.953944 -107.900944 12 9052ft 0kts
22-Jan-23 10:55 37.953944 -107.900944 12 9052ft 0kts
22-Jan-23 10:56 37.953944 -107.900944 12 9052ft 0kts
22-Jan-23 10:57 37.953944 -107.900944 12 9052ft 0kts
22-Jan-23 10:58 37.953970 -107.900948 326 9052ft 1kts
22-Jan-23 10:59 37.953161 -107.900486 101 9053ft 11kts
22-Jan-23 11:00 37.952357 -107.896782 142 9070ft 0kts
22-Jan-23 11:01 37.951349 -107.897215 292 9069ft 4kts
22-Jan-23 11:02 37.952675 -107.903451 284 9031ft 87kts
22-Jan-23 11:03 37.963422 -107.949292 288 10373ft 159kts
22-Jan-23 11:04 37.977191 -108.003252 283 12426ft 162kts
22-Jan-23 11:05 37.990736 -108.058044 281 14332ft 163kts
22-Jan-23 11:06 38.004458 -108.113550 280 16443ft 166kts
22-Jan-23 11:07 38.018339 -108.169929 279 18455ft 169kts
22-Jan-23 11:08 38.043989 -108.221764 324 20134ft 198kts
22-Jan-23 11:09 38.099141 -108.209179 32 21857ft 223kts
22-Jan-23 11:10 38.152695 -108.164102 32 22961ft 263kts
22-Jan-23 11:11 38.221234 -108.106287 32 22958ft 313kts
22-Jan-23 11:12 38.295515 -108.043343 32 22970ft 327kts
22-Jan-23 11:13 38.371724 -107.978818 33 22970ft 331kts
22-Jan-23 11:14 38.448334 -107.913610 33 22979ft 331kts
22-Jan-23 11:16 38.525244 -107.848094 33 22969ft 331kts
22-Jan-23 11:17 38.601868 -107.782561 33 22985ft 333kts
22-Jan-23 11:18 38.678838 -107.716639 33 22998ft 332kts
22-Jan-23 11:19 38.755135 -107.650573 34 23026ft 331kts
22-Jan-23 11:20 38.831733 -107.584879 34 23044ft 331kts
22-Jan-23 11:21 38.907964 -107.519072 34 23042ft 331kts
22-Jan-23 11:22 38.984266 -107.452985 33 23053ft 330kts
22-Jan-23 11:23 39.060313 -107.386958 34 23053ft 329kts
22-Jan-23 11:24 39.136490 -107.320671 34 23063ft 331kts
22-Jan-23 11:25 39.209307 -107.246513 56 22146ft 346kts
22-Jan-23 11:26 39.271040 -107.148762 49 19922ft 354kts
22-Jan-23 11:27 39.334731 -107.052318 50 17168ft 344kts
22-Jan-23 11:28 39.389387 -106.970177 50 17031ft 273kts
22-Jan-23 11:29 39.440789 -106.896924 56 15845ft 290kts
22-Jan-23 11:30 39.508757 -106.872178 322 14091ft 273kts
22-Jan-23 11:31 39.505592 -106.946183 204 14086ft 236kts
22-Jan-23 11:32 39.440689 -106.936030 169 14086ft 241kts
22-Jan-23 11:33 39.380813 -106.921841 175 12643ft 204kts
22-Jan-23 11:34 39.326329 -106.912741 168 11354ft 197kts
22-Jan-23 11:35 39.277183 -106.894782 162 9229ft 166kts
22-Jan-23 11:36 39.245160 -106.879240 161 8188ft 112kts
22-Jan-23 11:37 39.223282 -106.868492 85 7751ft 14kts
22-Jan-23 11:38 39.222806 -106.866772 114 7760ft 0kts

Navigation Log

Ident Type
Flight plan parsing failed, navigation log unavailable